Data for 08/02/2016

Time Sea-Level Adjusted Pressure Absolute Pressure Temperature Relative Humidity Dew Point   
(mb) (inHg) (mb) (inHg) (C) (F) (%) (C) (F)
00:05 1021 30.15 850 25.1 20.1 68.1 29 1.6 34.8
00:10 1021 30.15 850 25.1 20.1 68.1 29 1.8 35.2
00:15 1021 30.15 850 25.1 19.9 67.8 30 2 35.6
00:20 1021 30.15 850 25.1 19.8 67.7 30 2.1 35.9
00:25 1021 30.15 850 25.1 19.8 67.6 31 2.3 36.1
00:30 1021 30.15 850 25.1 19.7 67.4 31 2.4 36.3
00:35 1021 30.15 850 25.1 19.6 67.3 32 2.5 36.5
00:40 1021 30.15 850 25.1 19.5 67 32 2.6 36.6
00:45 1021 30.15 850 25.1 19.3 66.8 33 2.7 36.9
00:50 1021 30.15 850 25.1 19.2 66.6 33 2.6 36.7
00:55 1021 30.15 850 25.1 19.2 66.6 34 2.9 37.2
01:00 1021 30.15 850 25.1 19.1 66.4 34 2.9 37.3
01:05 1021 30.15 850 25.1 19.1 66.4 34 3 37.4
01:10 1021 30.15 850 25.1 19 66.1 35 3.1 37.6
01:15 1021 30.15 850 25.1 18.9 66 35 3.3 37.9
01:20 1021 30.15 850 25.1 18.7 65.7 36 3.4 38.1
01:25 1021 30.15 850 25.1 18.6 65.4 36 3.4 38.1
01:30 1021 30.15 850 25.1 18.4 65.2 37 3.6 38.4
01:35 1021 30.15 850 25.1 18.3 64.9 37 3.5 38.3
01:40 1021 30.15 850 25.1 18.2 64.7 38 3.6 38.4
01:45 1021 30.15 850 25.1 18.1 64.5 38 3.6 38.5
01:50 1021 30.15 850 25.1 18 64.4 38 3.8 38.8
01:55 1021 30.15 850 25.1 17.9 64.3 39 3.8 38.9
02:00 1021 30.15 850 25.1 17.8 64 39 3.9 39.1
02:05 1021 30.15 850 25.1 17.8 64 40 4 39.2
02:10 1021 30.15 850 25.1 17.8 64 40 4.1 39.3
02:15 1021 30.15 850 25.1 17.8 64 40 4.2 39.6
02:20 1021 30.15 850 25.1 17.8 64 40 4.3 39.8
02:25 1021 30.15 850 25.1 17.9 64.2 40 4.4 39.9
02:30 1021 30.15 850 25.1 17.9 64.3 40 4.4 39.9
02:35 1021 30.15 850 25.1 17.8 64.1 41 4.5 40.1
02:40 1021 30.15 850 25.1 17.8 64 41 4.5 40.1
02:45 1021 30.15 850 25.1 17.7 63.8 42 4.7 40.4
02:50 1021 30.15 850 25.1 17.5 63.5 42 4.6 40.4
02:55 1021 30.15 850 25.1 17.5 63.4 42 4.7 40.5
03:00 1021 30.15 850 25.1 17.5 63.4 42 4.7 40.5
03:05 1021 30.15 850 25.1 17.5 63.5 43 4.8 40.6
03:10 1021 30.15 850 25.1 17.5 63.5 43 4.8 40.6
03:15 1021 30.15 850 25.1 17.6 63.6 43 4.9 40.8
03:20 1021 30.15 850 25.1 17.6 63.7 42 4.8 40.6
03:25 1021 30.15 850 25.1 17.6 63.7 43 4.9 40.8
03:30 1021 30.15 850 25.1 17.5 63.5 43 4.9 40.8
03:35 1021 30.15 850 25.1 17.4 63.3 43 4.8 40.7
03:40 1021 30.15 850 25.1 17.4 63.3 43 4.8 40.6
03:45 1021 30.15 850 25.1 17.3 63.2 43 4.9 40.8
03:50 1021 30.15 850 25.1 17.2 63 44 4.9 40.8
03:55 1021 30.15 850 25.1 17.1 62.7 44 4.9 40.9
04:00 1021 30.15 850 25.1 16.9 62.5 45 5 41
04:05 1021 30.15 850 25.1 16.8 62.3 45 5 41
04:10 1021 30.15 850 25.1 16.6 61.9 46 5.1 41.2
04:15 1021 30.15 850 25.1 16.4 61.6 47 5.1 41.2
04:20 1021 30.15 850 25.1 16.3 61.3 47 5 41.1
04:25 1021 30.15 850 25.1 16 60.7 48 5 41
04:30 1021 30.15 850 25.1 16 60.8 48 5 41
04:35 1021 30.15 850 25.1 16.1 60.9 47 5 41
04:40 1021 30.15 851 25.13 16.2 61.1 47 5.1 41.1
04:45 1021 30.15 851 25.13 16.1 61 48 5.1 41.2
04:50 1021 30.15 851 25.13 15.1 59.1 46 3.5 38.4
04:55 1021 30.15 851 25.13 13.9 57.1 46 2.6 36.7
05:00 1021 30.15 851 25.13 13.7 56.6 43 1.5 34.7
05:05 1021 30.15 851 25.13 13.3 56 41 0.4 32.8
05:10 1021 30.15 851 25.13 13.3 56 42 0.7 33.2
05:15 1021 30.15 851 25.13 13.3 55.9 41 0.4 32.7
05:20 1021 30.15 851 25.13 13.4 56.1 41 0.5 32.9
05:25 1022 30.18 851 25.13 13.3 56 39 -0.3 31.4
05:30 1022 30.18 851 25.13 13.4 56.1 38 -0.4 31.2
05:35 1022 30.18 851 25.13 13.4 56.1 39 -0.4 31.3
05:40 1022 30.18 851 25.13 13.2 55.7 38 -0.6 31
05:45 1022 30.18 851 25.13 13.1 55.5 38 -0.9 30.4
05:50 1022 30.18 851 25.13 13 55.4 40 -0.3 31.4
05:55 1022 30.18 851 25.13 12.5 54.6 40 -0.7 30.8
06:00 1022 30.18 851 25.13 12.3 54.1 40 -1 30.1
06:05 1022 30.18 851 25.13 12.2 54 40 -0.9 30.3
06:10 1022 30.18 851 25.13 12.3 54.1 40 -1 30.3
06:15 1022 30.18 851 25.13 12.5 54.5 39 -0.9 30.4
06:20 1022 30.18 851 25.13 12.7 54.9 40 -0.5 31
06:25 1022 30.18 851 25.13 13.2 55.7 37 -1 30.2
06:30 1022 30.18 851 25.13 13.5 56.4 38 -0.6 31
06:35 1022 30.18 851 25.13 13.7 56.7 38 -0.2 31.6
06:40 1022 30.18 851 25.13 13.7 56.7 37 -0.6 30.9
06:45 1022 30.18 851 25.13 13.9 57.1 36 -0.7 30.7
06:50 1022 30.18 851 25.13 14.3 57.7 37 -0.1 31.9
06:55 1022 30.18 852 25.16 14.7 58.4 37 0.3 32.6
07:00 1022 30.18 852 25.16 15.2 59.4 38 0.9 33.7
07:05 1022 30.18 851 25.13 15.3 59.6 39 1.5 34.6
07:10 1022 30.18 852 25.16 15.4 59.7 38 1.4 34.5
07:15 1022 30.18 852 25.16 15.8 60.4 35 0.6 33
07:20 1022 30.18 852 25.16 16.3 61.3 35 0.9 33.6
07:25 1022 30.18 852 25.16 16.7 62 35 1.2 34.2
07:30 1022 30.18 852 25.16 17.3 63.2 34 1.5 34.7
07:35 1022 30.18 852 25.16 17.7 63.8 34 1.6 34.8
07:40 1022 30.18 852 25.16 17.8 64.1 32 1.3 34.3
07:45 1022 30.18 852 25.16 18 64.4 32 1 33.8
07:50 1022 30.18 852 25.16 18.5 65.2 31 1.1 34
07:55 1022 30.18 852 25.16 18.5 65.3 31 1.2 34.2
08:00 1022 30.18 851 25.13 19.1 66.4 29 0.8 33.4
08:05 1022 30.18 851 25.13 19.6 67.2 28 0.6 33.1
08:10 1022 30.18 851 25.13 20 68 28 1.2 34.1
08:15 1022 30.18 851 25.13 20.6 69.1 28 1.5 34.8
08:20 1022 30.18 851 25.13 20.8 69.5 27 1.3 34.4
08:25 1022 30.18 851 25.13 20.7 69.3 28 1.7 35.1
08:30 1022 30.18 851 25.13 21 69.7 28 1.8 35.2
08:35 1022 30.18 851 25.13 21.7 71 26 1.7 35.1
08:40 1022 30.18 851 25.13 22 71.5 26 1.5 34.8
08:45 1022 30.18 851 25.13 22.1 71.8 23 0.1 32.3
08:50 1022 30.18 851 25.13 22.4 72.3 23 0.4 32.8
08:55 1022 30.18 851 25.13 22.1 71.7 23 0.1 32.2
09:00 1022 30.18 851 25.13 22.4 72.4 23 0.2 32.3
09:05 1022 30.18 851 25.13 23.1 73.6 23 0.8 33.4
09:10 1022 30.18 851 25.13 23.2 73.7 24 1.5 34.7
09:15 1022 30.18 851 25.13 23.7 74.6 22 0.8 33.5
09:20 1022 30.18 851 25.13 23.8 74.8 22 1.2 34.2
09:25 1022 30.18 851 25.13 24.1 75.4 21 0.7 33.3
09:30 1021 30.15 851 25.13 24.8 76.6 21 1.4 34.6
09:35 1021 30.15 851 25.13 25.2 77.4 20 0.9 33.6
09:40 1021 30.15 851 25.13 24.6 76.3 21 1.2 34.2
09:45 1021 30.15 851 25.13 24.5 76.2 22 1.9 35.3
09:50 1021 30.15 851 25.13 24.6 76.3 21 1 33.8
09:55 1021 30.15 851 25.13 25.2 77.3 19 -0.1 31.8
10:00 1021 30.15 850 25.1 25.4 77.7 19 0.4 32.8
10:05 1021 30.15 850 25.1 26.1 78.9 18 0.4 32.7
10:10 1021 30.15 850 25.1 26.2 79.2 18 0 32
10:15 1021 30.15 850 25.1 25.6 78.1 19 0.3 32.6
10:20 1021 30.15 850 25.1 25.1 77.2 19 0.3 32.6
10:25 1021 30.15 850 25.1 25.4 77.6 19 0.2 32.3
10:30 1021 30.15 850 25.1 25.4 77.7 19 0.3 32.6
10:35 1021 30.15 850 25.1 26.2 79.1 16 -1.1 30
10:40 1021 30.15 850 25.1 26 78.8 16 -1.3 29.7
10:45 1021 30.15 850 25.1 26.9 80.4 15 -1.3 29.7
10:50 1021 30.15 850 25.1 26.4 79.4 17 -0.3 31.5
10:55 1021 30.15 850 25.1 26.7 80.1 15 -1.5 29.3
11:00 1021 30.15 850 25.1 26.9 80.3 18 0.7 33.3
11:05 1020 30.12 850 25.1 26.7 80.1 18 0.5 32.9
11:10 1020 30.12 850 25.1 27 80.6 17 0.3 32.5
11:15 1020 30.12 850 25.1 28 82.5 15 -0.3 31.5
11:20 1020 30.12 849 25.07 28.6 83.4 14 -0.9 30.4
11:25 1020 30.12 849 25.07 29.1 84.3 14 -1.1 30.1
11:30 1020 30.12 849 25.07 28.5 83.3 13 -2.3 27.8
11:35 1020 30.12 849 25.07 28.9 84 14 -1.3 29.6
11:40 1020 30.12 849 25.07 29.1 84.4 13 -2.2 28.1
11:45 1020 30.12 849 25.07 29 84.3 14 -1.2 29.8
11:50 1020 30.12 849 25.07 28.9 84 13 -2 28.4
11:55 1020 30.12 849 25.07 29.5 85.1 13 -1.8 28.7
12:00 1020 30.12 849 25.07 29.6 85.4 12 -2.8 26.9
12:05 1020 30.12 849 25.07 29.4 85 12 -3 26.7
12:10 1019 30.09 849 25.07 29.5 85.1 12 -3 26.6
12:15 1019 30.09 849 25.07 30.5 87 11 -2.5 27.5
12:20 1019 30.09 848 25.04 31 87.8 11 -2.7 27.2
12:25 1019 30.09 848 25.04 30.2 86.3 10 -4.2 24.5
12:30 1019 30.09 848 25.04 30.8 87.4 10 -4.2 24.4
12:35 1019 30.09 848 25.04 30.8 87.4 10 -4 24.7
12:40 1019 30.09 848 25.04 30.6 87.1 10 -4.2 24.5
12:45 1019 30.09 848 25.04 31.7 89 9 -4.5 23.9
12:50 1019 30.09 848 25.04 31.4 88.4 10 -3.9 25
12:55 1019 30.09 848 25.04 30.5 86.8 10 -4.6 23.7
13:00 1018 30.06 848 25.04 30.9 87.6 9 -5.3 22.5
13:05 1018 30.06 848 25.04 30.6 87.1 10 -4.3 24.3
13:10 1018 30.06 847 25.01 31.1 88 10 -4.1 24.6
13:15 1018 30.06 847 25.01 32.1 89.8 10 -3.4 25.9
13:20 1018 30.06 847 25.01 32.3 90.1 9 -3.9 25
13:25 1018 30.06 847 25.01 33 91.4 8 -5 23
13:30 1018 30.06 847 25.01 32.4 90.4 8 -5.5 22.1
13:35 1018 30.06 847 25.01 32.3 90.1 9 -4.7 23.6
13:40 1018 30.06 847 25.01 32.1 89.8 9 -4.7 23.6
13:45 1018 30.06 847 25.01 32.1 89.8 8 -5.2 22.6
13:50 1018 30.06 847 25.01 32.3 90.2 9 -4.6 23.8
13:55 1017 30.03 847 25.01 32.8 91 9 -4 24.7
14:00 1017 30.03 847 25.01 33.1 91.5 8 -5.2 22.6
14:05 1017 30.03 846 24.98 32.9 91.2 8 -5.1 22.8
14:10 1017 30.03 846 24.98 33.3 92 8 -5.1 22.8
14:15 1017 30.03 846 24.98 33.2 91.7 8 -4.9 23.3
14:20 1017 30.03 846 24.98 32.2 90 10 -3 26.6
14:25 1017 30.03 846 24.98 33.5 92.4 9 -3.4 26
14:30 1017 30.03 846 24.98 33.6 92.4 8 -4.7 23.5
14:35 1017 30.03 846 24.98 32.3 90.1 9 -4.2 24.5
14:40 1017 30.03 846 24.98 32.5 90.5 9 -3.9 25
14:45 1017 30.03 846 24.98 32.8 91.1 8 -4.6 23.7
14:50 1016 30 846 24.98 33.3 91.9 8 -5.1 22.8
14:55 1016 30 846 24.98 34.5 94 8 -4.8 23.4
15:00 1016 30 845 24.95 34.4 93.9 8 -5 23
15:05 1016 30 845 24.95 34.3 93.7 8 -4.5 24
15:10 1016 30 845 24.95 34.1 93.3 8 -4.9 23.1
15:15 1016 30 845 24.95 34 93.1 8 -4.9 23.2
15:20 1016 30 845 24.95 34.6 94.3 7 -5.2 22.6
15:25 1016 30 845 24.95 34.2 93.5 8 -4.7 23.5
15:30 1016 30 845 24.95 33.5 92.2 8 -5.5 22.2
15:35 1016 30 845 24.95 33.3 91.9 8 -4.6 23.7
15:40 1016 30 845 24.95 34.3 93.8 7 -5.2 22.7
15:45 1016 30 845 24.95 34.6 94.3 8 -4.8 23.3
15:50 1016 30 845 24.95 34.7 94.5 7 -5.2 22.6
15:55 1016 30 845 24.95 33.7 92.6 8 -4.6 23.8
16:00 1016 30 845 24.95 33.5 92.2 8 -4.2 24.5
16:05 1016 30 845 24.95 33.6 92.4 9 -3.7 25.3
16:10 1015 29.97 845 24.95 34.1 93.4 8 -3.8 25.1
16:15 1015 29.97 845 24.95 34.4 93.8 8 -4.9 23.2
16:20 1015 29.97 845 24.95 33.5 92.4 8 -4.5 24
16:25 1015 29.97 845 24.95 33 91.4 8 -4.6 23.8
16:30 1015 29.97 845 24.95 33.1 91.6 8 -4.5 24
16:35 1015 29.97 845 24.95 33.5 92.4 8 -5.2 22.6
16:40 1015 29.97 844 24.92 33.3 91.9 8 -5.6 21.9
16:45 1015 29.97 844 24.92 32.7 90.9 7 -6.5 20.2
16:50 1015 29.97 844 24.92 32.6 90.8 8 -5.8 21.6
16:55 1015 29.97 844 24.92 32.5 90.6 8 -6.4 20.5
17:00 1015 29.97 844 24.92 32.4 90.3 8 -5.5 22
17:05 1015 29.97 844 24.92 32.2 89.9 8 -5.6 21.9
17:10 1015 29.97 844 24.92 32.2 90 8 -6.5 20.3
17:15 1015 29.97 844 24.92 32.2 90 8 -5.5 22
17:20 1015 29.97 844 24.92 32.2 89.9 8 -5.4 22.2
17:25 1015 29.97 844 24.92 32.6 90.6 9 -4.8 23.4
17:30 1015 29.97 844 24.92 32.9 91.2 9 -4.3 24.3
17:35 1015 29.97 844 24.92 32.8 91.1 9 -4.6 23.8
17:40 1015 29.97 844 24.92 32.7 90.8 10 -2.8 27
17:45 1015 29.97 844 24.92 32.3 90.2 9 -4.7 23.6
17:50 1015 29.97 844 24.92 32.1 89.9 9 -4.5 23.9
17:55 1015 29.97 844 24.92 31.9 89.4 10 -3.7 25.4
18:00 1015 29.97 844 24.92 31.6 88.9 10 -3.6 25.6
18:05 1015 29.97 844 24.92 31.2 88.2 11 -2.5 27.4
18:10 1015 29.97 844 24.92 30.7 87.2 11 -3.2 26.3
18:15 1015 29.97 844 24.92 30.8 87.4 10 -4.5 23.9
18:20 1015 29.97 844 24.92 31.1 88 9 -4.5 23.9
18:25 1015 29.97 844 24.92 31.5 88.8 8 -6.7 20
18:30 1015 29.97 844 24.92 31.9 89.3 9 -4.9 23.2
18:35 1015 29.97 844 24.92 31.6 88.8 10 -4.1 24.7
18:40 1015 29.97 844 24.92 31.1 88.1 10 -3.7 25.4
18:45 1015 29.97 844 24.92 30.7 87.3 11 -3.3 26.1
18:50 1015 29.97 844 24.92 30.5 86.9 11 -2.4 27.7
18:55 1015 29.97 844 24.92 29.9 85.7 12 -2.7 27.2
19:00 1015 29.97 844 24.92 29.6 85.2 11 -3.2 26.3
19:05 1014 29.94 844 24.92 29.9 85.8 11 -3.1 26.5
19:10 1014 29.94 844 24.92 30 86 11 -3.9 24.9
19:15 1014 29.94 844 24.92 29.7 85.4 13 -1.4 29.4
19:20 1014 29.94 843 24.89 28.8 83.9 14 -0.7 30.7
19:25 1014 29.94 843 24.89 28.3 82.9 14 -1 30.1
19:30 1014 29.94 843 24.89 28.3 82.9 13 -2.4 27.7
19:35 1014 29.94 843 24.89 28.5 83.3 12 -3 26.7
19:40 1014 29.94 843 24.89 29 84.2 14 -1.1 30
19:45 1014 29.94 843 24.89 29 84.2 11 -4.3 24.2
19:50 1014 29.94 843 24.89 29.4 84.9 11 -3.5 25.8
19:55 1014 29.94 843 24.89 29.1 84.4 13 -1.9 28.6
20:00 1014 29.94 843 24.89 29.1 84.3 12 -3.3 26.1
20:05 1014 29.94 843 24.89 29 84.3 11 -3.9 24.9
20:10 1014 29.94 843 24.89 29.1 84.3 11 -4.6 23.7
20:15 1014 29.94 843 24.89 28.7 83.6 11 -4 24.8
20:20 1014 29.94 843 24.89 28.4 83.2 11 -4.4 24.1
20:25 1014 29.94 843 24.89 28.5 83.2 11 -4.9 23.1
20:30 1014 29.94 843 24.89 28.6 83.4 14 -1.7 29
20:35 1014 29.94 843 24.89 28.1 82.5 12 -3.9 25.1
20:40 1014 29.94 844 24.92 27.5 81.5 13 -2.7 27.2
20:45 1014 29.94 844 24.92 27.1 80.8 12 -4.9 23.2
20:50 1014 29.94 844 24.92 27.8 82.1 10 -6 21.2
20:55 1014 29.94 844 24.92 28.7 83.6 9 -6.4 20.5
21:00 1014 29.94 844 24.92 28.7 83.7 10 -5.8 21.5
21:05 1014 29.94 844 24.92 28.3 83 10 -5.6 22
21:10 1014 29.94 844 24.92 28.2 82.8 10 -5.7 21.7
21:15 1014 29.94 844 24.92 28 82.4 10 -5.6 22
21:20 1014 29.94 844 24.92 27.8 82 11 -5.3 22.5
21:25 1014 29.94 844 24.92 27.3 81.2 11 -5.2 22.6
21:30 1014 29.94 844 24.92 26.8 80.2 12 -4.5 23.8
21:35 1014 29.94 844 24.92 26.1 78.9 12 -5.4 22.3
21:40 1014 29.94 844 24.92 26 78.8 12 -5.4 22.2
21:45 1014 29.94 844 24.92 26 78.7 12 -5.4 22.2
21:50 1014 29.94 844 24.92 26.2 79.1 11 -5.8 21.5
21:55 1014 29.94 844 24.92 26.4 79.6 11 -5.7 21.8
22:00 1015 29.97 844 24.92 26.4 79.5 12 -5.5 22
22:05 1015 29.97 844 24.92 26.2 79.2 12 -5.7 21.8
22:10 1015 29.97 844 24.92 26.3 79.3 11 -5.9 21.4
22:15 1015 29.97 844 24.92 26.4 79.5 11 -5.6 21.9
22:20 1015 29.97 844 24.92 25.9 78.7 12 -5 23.1
22:25 1015 29.97 844 24.92 25.6 78 12 -5.7 21.8
22:30 1015 29.97 844 24.92 25.6 78 12 -5.8 21.5
22:35 1015 29.97 844 24.92 25.5 77.9 12 -5.4 22.2
22:40 1015 29.97 844 24.92 25.3 77.5 12 -5.8 21.6
22:45 1015 29.97 844 24.92 25.1 77.3 12 -5.6 21.9
22:50 1015 29.97 844 24.92 24.8 76.6 12 -5.9 21.4
22:55 1015 29.97 844 24.92 24.8 76.6 14 -4.5 24
23:00 1015 29.97 845 24.95 24.2 75.5 14 -4.9 23.2
23:05 1015 29.97 845 24.95 24 75.1 15 -4.4 24.1
23:10 1016 30 845 24.95 24 75.1 14 -5 23
23:15 1016 30 845 24.95 24.1 75.4 16 -3.2 26.2
23:20 1016 30 845 24.95 23.9 75 15 -3.8 25.2
23:25 1016 30 845 24.95 23.6 74.5 17 -2.6 27.2
23:30 1016 30 845 24.95 23.4 74.1 18 -1.9 28.6
23:35 1016 30 845 24.95 22.9 73.2 18 -2.3 27.8
23:40 1016 30 845 24.95 22.3 72.2 19 -1.9 28.6
23:45 1016 30 845 24.95 22 71.6 20 -1.6 29.1
23:50 1016 30 845 24.95 21.8 71.2 22 -1 30.2
23:55 1016 30 845 24.95 21.6 70.8 22 -0.8 30.6
24:00 1016 30 845 24.95 21.4 70.5 25 0.5 33